x

Destruction Island, Wa (desw1) Weather Station

11:00pm - Tue 15th Apr 2014 All times are PDT. -7 hours from GMT.

  • Wind
    9mph
  • 空気 Temp 49°f
  • Sea Pressure 1018.8mb
  • Destruction Island, Wa
  • Destruction Island, Wa

More Historic Weather Station data

Upgrade to MSW Pro to gain access to the past 30 days of data for over 8000 Wavebouys and Weather Stations around the globe.

Join Pro

Comparision Forecast

View Surf forecast
   
Tue 04/15 11:00pm 9
mph
1018.8mb 49f
10:00pm 11 13 mph 1019mb 49f
9:00pm 13 14 mph 1018.9mb 49f
8:00pm 11 13 mph 1018.8mb 49f
7:00pm 20 23 mph 1018.9mb 49f
6:00pm 31 33 mph 1019.5mb 49f
5:00pm 26 28 mph 1020.5mb 48f
4:00pm 22 24 mph 1021.3mb 49f
3:00pm 21 24 mph 1022mb 48f
2:00pm 22 26 mph 1022.3mb 48f
1:00pm 23 25 mph 1022.9mb 48f
12:00pm 17 18 mph 1023.5mb 48f
11:00am 15 16 mph 1023.5mb 48f
10:00am 10 11 mph 1023.3mb 47f
9:00am 8
mph
1023.1mb 46f
8:00am 6 8 mph 1023mb 45f
7:00am 8 9 mph 1023mb 45f
6:00am 2 3 mph 1023.1mb 46f
5:00am 10 11 mph 1023mb 48f
4:00am 17 18 mph 1023.2mb 48f
3:00am 17 18 mph 1023.2mb 48f
2:00am 14 16 mph 1023.7mb 48f
1:00am 9 10 mph 1023.4mb 48f
12:00am 15 18 mph 1023.6mb 48f
Mon 04/14 11:00pm 14 16 mph 1023.6mb 48f
10:00pm 16 17 mph 1023.4mb 49f
9:00pm 15 16 mph 1023mb 49f
8:00pm 17 20 mph 1022.8mb 49f
7:00pm 22 23 mph 1022.8mb 49f
6:00pm 23 24 mph 1022.9mb 49f
5:00pm 23 24 mph 1022.1mb 49f
4:00pm 21 23 mph 1022.2mb 49f
3:00pm 18 20 mph 1022.7mb 50f
2:00pm 23 25 mph 1022.3mb 50f
1:00pm 29 32 mph 1021.8mb 51f
12:00pm 16 18 mph 1021.5mb 51f
11:00am 17 20 mph 1021.2mb 50f
10:00am 6 7 mph 1021mb 51f
9:00am 5 6 mph 1020.5mb 49f
8:00am 5 6 mph 1020.4mb 49f
7:00am 8
mph
1019.8mb 49f
6:00am 9 10 mph 1019.3mb 48f
5:00am 6 7 mph 1019.5mb 49f
4:00am 17 18 mph 1019.1mb 50f
3:00am 15 16 mph 1019.5mb 49f
2:00am 14 15 mph 1019.9mb 50f
1:00am 10 11 mph 1020.7mb 51f
12:00am 11 13 mph 1021.4mb 51f
Sun 04/13 11:00pm 5 6 mph 1022mb 53f
10:00pm 10 11 mph 1022.3mb 51f
9:00pm 16 17 mph 1022.4mb 52f
8:00pm 22 23 mph 1022.2mb 52f
7:00pm 21
mph
1022.5mb 52f
6:00pm 14 15 mph 1023.4mb 53f
5:00pm 11 13 mph 1024mb 52f
4:00pm 10
mph
1024.6mb 53f
3:00pm 11
mph
1025.3mb 53f
2:00pm 6 7 mph 1025.7mb 56f
1:00pm 8 9 mph 1025.9mb 55f
12:00pm 8
mph
1026.1mb 52f
11:00am 3 5 mph 1026.1mb 51f
10:00am 5
mph
1025.7mb 50f
9:00am 8 9 mph 1025.4mb 49f
8:00am 8
mph
1025mb 46f
7:00am 7 8 mph 1024.5mb 44f
6:00am  -  1 mph 1024mb 45f
5:00am 6
mph
1023.9mb 46f
4:00am 11 13 mph 1023.2mb 45f
3:00am 10
mph
1023.2mb 46f
2:00am 10 11 mph 1023mb 46f
1:00am 13 14 mph 1022.5mb 47f
12:00am 8
mph
1022.3mb 47f
Sat 04/12 11:00pm 5
mph
1022.2mb 48f
10:00pm 5 6 mph 1021.8mb 49f
9:00pm 10 11 mph 1021.1mb 50f
8:00pm 18 20 mph 1020.6mb 49f
7:00pm 21 23 mph 1020.6mb 49f
6:00pm 18 21 mph 1020.7mb 50f
5:00pm 15 16 mph 1020.6mb 50f
4:00pm 16 17 mph 1021mb 50f
3:00pm 15 16 mph 1021.1mb 51f
2:00pm 11 14 mph 1021mb 52f
1:00pm 10 13 mph 1021mb 50f
12:00pm 9 13 mph 1021mb 50f
11:00am 10
mph
1020.9mb 48f
10:00am 2
mph
1020.7mb 48f
9:00am 3 5 mph 1020.6mb 46f
8:00am 6 7 mph 1020.3mb 46f